Saint Clair Beach, Canada
Current Conditions -  °F | °C
As of 4:00 PM on Tuesday 27 Jan 2015 (Local Time) from CYQG Reporting Station
Few Clouds Few Clouds  
Wind Chill: 15°   Ceiling: Unl
Heat Index: 25°   Visibility: 15mi
Dew Point: 10°   Wind: 9mph
Humidity: 54%   Direction: 340°NNW
Pressure: 30.12"   Gusts: NA
Location:  42.32°N, 82.85°W
Report Text: CYQG 272100Z 34008KT 15SM FEW030 M04/M12 A3012 RMK SC1 SC TR SLP211
Loading
Personal Weather Stations






























Interactive Weather Map New forecast layout! Learn more

10-Day Weather Forecast

Advertisements
Track Severe Weather on mobile